sensor_id;sensor_type;location;lat;lon;timestamp;pressure;altitude;pressure_sealevel;temperature;humidity
71306;BME280;59097;46.858;18.632;2023-04-09T00:01:26;101076.44;;;4.33;100.00
71306;BME280;59097;46.858;18.632;2023-04-09T00:03:59;101057.19;;;5.05;100.00
71306;BME280;59097;46.858;18.632;2023-04-09T00:06:28;101075.50;;;5.13;100.00
71306;BME280;59097;46.858;18.632;2023-04-09T00:08:56;101077.47;;;4.52;100.00
71306;BME280;59097;46.858;18.632;2023-04-09T00:11:24;101066.38;;;4.48;100.00
71306;BME280;59097;46.858;18.632;2023-04-09T00:13:52;101074.97;;;4.50;100.00
71306;BME280;59097;46.858;18.632;2023-04-09T00:16:20;101074.25;;;4.48;100.00
71306;BME280;59097;46.858;18.632;2023-04-09T00:18:48;101075.03;;;4.29;100.00
71306;BME280;59097;46.858;18.632;2023-04-09T00:21:17;101053.75;;;4.32;100.00
71306;BME280;59097;46.858;18.632;2023-04-09T00:23:45;101051.81;;;4.34;100.00
71306;BME280;59097;46.858;18.632;2023-04-09T00:26:56;101052.91;;;4.32;100.00
71306;BME280;59097;46.858;18.632;2023-04-09T00:29:38;101069.66;;;4.31;100.00
71306;BME280;59097;46.858;18.632;2023-04-09T00:32:04;101075.59;;;4.33;100.00
71306;BME280;59097;46.858;18.632;2023-04-09T00:34:30;101003.13;;;3.81;100.00
71306;BME280;59097;46.858;18.632;2023-04-09T00:36:56;101071.16;;;4.24;100.00
71306;BME280;59097;46.858;18.632;2023-04-09T00:39:23;101060.78;;;4.22;100.00
71306;BME280;59097;46.858;18.632;2023-04-09T00:41:59;101069.94;;;4.77;100.00
71306;BME280;59097;46.858;18.632;2023-04-09T00:44:30;101069.94;;;4.77;100.00
71306;BME280;59097;46.858;18.632;2023-04-09T00:46:58;101066.16;;;4.21;100.00
71306;BME280;59097;46.858;18.632;2023-04-09T00:49:29;101074.47;;;4.26;100.00
71306;BME280;59097;46.858;18.632;2023-04-09T00:51:58;101068.78;;;4.21;100.00
71306;BME280;59097;46.858;18.632;2023-04-09T00:54:26;101069.34;;;4.24;100.00
71306;BME280;59097;46.858;18.632;2023-04-09T00:56:54;101058.03;;;4.24;100.00
71306;BME280;59097;46.858;18.632;2023-04-09T00:59:24;101074.75;;;4.32;100.00
71306;BME280;59097;46.858;18.632;2023-04-09T01:01:53;101080.72;;;4.34;100.00
71306;BME280;59097;46.858;18.632;2023-04-09T01:04:37;101069.91;;;4.28;100.00
71306;BME280;59097;46.858;18.632;2023-04-09T01:09:43;101077.28;;;4.34;100.00
71306;BME280;59097;46.858;18.632;2023-04-09T01:12:28;101034.50;;;4.13;100.00
71306;BME280;59097;46.858;18.632;2023-04-09T01:15:09;101076.00;;;4.28;100.00
71306;BME280;59097;46.858;18.632;2023-04-09T01:20:21;101081.28;;;5.06;100.00
71306;BME280;59097;46.858;18.632;2023-04-09T01:25:59;101071.47;;;4.40;100.00
71306;BME280;59097;46.858;18.632;2023-04-09T01:28:41;101034.34;;;4.14;100.00
71306;BME280;59097;46.858;18.632;2023-04-09T01:31:12;101066.47;;;4.37;100.00
71306;BME280;59097;46.858;18.632;2023-04-09T01:33:41;101073.66;;;4.35;100.00
71306;BME280;59097;46.858;18.632;2023-04-09T01:36:09;101069.78;;;4.29;100.00
71306;BME280;59097;46.858;18.632;2023-04-09T01:38:40;101074.22;;;4.29;100.00
71306;BME280;59097;46.858;18.632;2023-04-09T01:41:13;101068.13;;;4.28;100.00
71306;BME280;59097;46.858;18.632;2023-04-09T01:43:57;101076.84;;;4.29;100.00
71306;BME280;59097;46.858;18.632;2023-04-09T01:46:42;101074.22;;;4.29;100.00
71306;BME280;59097;46.858;18.632;2023-04-09T01:49:09;101014.25;;;3.94;100.00
71306;BME280;59097;46.858;18.632;2023-04-09T01:51:36;101074.22;;;4.29;100.00
71306;BME280;59097;46.858;18.632;2023-04-09T01:54:03;101064.50;;;4.20;100.00
71306;BME280;59097;46.858;18.632;2023-04-09T01:56:42;101082.78;;;4.31;100.00
71306;BME280;59097;46.858;18.632;2023-04-09T01:59:15;101078.22;;;4.82;100.00
71306;BME280;59097;46.858;18.632;2023-04-09T02:01:46;101078.22;;;4.82;100.00
71306;BME280;59097;46.858;18.632;2023-04-09T02:04:31;101080.69;;;4.25;100.00
71306;BME280;59097;46.858;18.632;2023-04-09T02:07:44;101071.84;;;4.26;100.00
71306;BME280;59097;46.858;18.632;2023-04-09T02:10:14;101076.84;;;4.29;100.00
71306;BME280;59097;46.858;18.632;2023-04-09T02:12:49;101080.41;;;4.28;100.00
71306;BME280;59097;46.858;18.632;2023-04-09T02:15:35;101081.66;;;4.24;100.00
71306;BME280;59097;46.858;18.632;2023-04-09T02:18:03;101078.75;;;4.27;100.00
71306;BME280;59097;46.858;18.632;2023-04-09T02:20:29;101062.66;;;4.11;100.00
71306;BME280;59097;46.858;18.632;2023-04-09T02:22:56;101076.78;;;4.19;100.00
71306;BME280;59097;46.858;18.632;2023-04-09T02:25:22;101069.06;;;4.18;100.00
71306;BME280;59097;46.858;18.632;2023-04-09T02:27:49;101057.50;;;4.00;100.00
71306;BME280;59097;46.858;18.632;2023-04-09T02:30:21;101014.13;;;4.35;100.00
71306;BME280;59097;46.858;18.632;2023-04-09T02:32:50;101014.13;;;4.35;100.00
71306;BME280;59097;46.858;18.632;2023-04-09T02:35:18;101071.47;;;4.00;100.00
71306;BME280;59097;46.858;18.632;2023-04-09T02:37:46;101032.53;;;3.75;100.00
71306;BME280;59097;46.858;18.632;2023-04-09T02:40:14;101067.81;;;3.92;100.00
71306;BME280;59097;46.858;18.632;2023-04-09T02:42:42;101052.72;;;3.84;100.00
71306;BME280;59097;46.858;18.632;2023-04-09T02:45:10;101053.63;;;3.73;100.00
71306;BME280;59097;46.858;18.632;2023-04-09T02:47:38;101059.97;;;3.71;100.00
71306;BME280;59097;46.858;18.632;2023-04-09T02:50:21;101025.78;;;3.52;100.00
71306;BME280;59097;46.858;18.632;2023-04-09T02:53:18;101046.22;;;3.58;100.00
71306;BME280;59097;46.858;18.632;2023-04-09T02:56:01;101075.00;;;3.69;100.00
71306;BME280;59097;46.858;18.632;2023-04-09T02:58:27;101075.00;;;3.69;100.00
71306;BME280;59097;46.858;18.632;2023-04-09T03:00:54;101066.88;;;3.72;100.00
71306;BME280;59097;46.858;18.632;2023-04-09T03:03:20;101049.38;;;3.52;100.00
71306;BME280;59097;46.858;18.632;2023-04-09T03:05:46;101077.44;;;3.61;100.00
71306;BME280;59097;46.858;18.632;2023-04-09T03:08:19;101070.38;;;4.42;100.00
71306;BME280;59097;46.858;18.632;2023-04-09T03:10:48;101070.38;;;4.42;100.00
71306;BME280;59097;46.858;18.632;2023-04-09T03:13:16;101068.16;;;3.77;100.00
71306;BME280;59097;46.858;18.632;2023-04-09T03:15:44;101065.94;;;3.73;100.00
71306;BME280;59097;46.858;18.632;2023-04-09T03:18:12;101064.91;;;3.64;100.00
71306;BME280;59097;46.858;18.632;2023-04-09T03:20:41;101069.97;;;3.56;100.00
71306;BME280;59097;46.858;18.632;2023-04-09T03:23:10;101060.50;;;3.44;100.00
71306;BME280;59097;46.858;18.632;2023-04-09T03:25:39;101061.13;;;3.37;100.00
71306;BME280;59097;46.858;18.632;2023-04-09T03:28:29;101066.69;;;3.85;100.00
71306;BME280;59097;46.858;18.632;2023-04-09T03:30:58;101066.69;;;3.85;100.00
71306;BME280;59097;46.858;18.632;2023-04-09T03:33:27;101060.66;;;3.11;100.00
71306;BME280;59097;46.858;18.632;2023-04-09T03:35:56;101051.19;;;2.99;100.00
71306;BME280;59097;46.858;18.632;2023-04-09T03:38:26;101049.44;;;2.88;100.00
71306;BME280;59097;46.858;18.632;2023-04-09T03:40:55;101063.69;;;2.95;100.00
71306;BME280;59097;46.858;18.632;2023-04-09T03:43:23;101041.91;;;2.84;100.00
71306;BME280;59097;46.858;18.632;2023-04-09T03:45:52;101060.37;;;2.93;100.00
71306;BME280;59097;46.858;18.632;2023-04-09T03:48:31;101064.63;;;2.94;100.00
71306;BME280;59097;46.858;18.632;2023-04-09T03:51:17;101060.72;;;2.89;100.00
71306;BME280;59097;46.858;18.632;2023-04-09T03:53:43;101061.69;;;2.88;100.00
71306;BME280;59097;46.858;18.632;2023-04-09T03:56:10;101046.59;;;2.80;100.00
71306;BME280;59097;46.858;18.632;2023-04-09T03:58:36;101026.19;;;2.63;100.00
71306;BME280;59097;46.858;18.632;2023-04-09T04:01:02;101066.91;;;2.99;100.00
71306;BME280;59097;46.858;18.632;2023-04-09T04:03:29;101060.44;;;3.03;100.00
71306;BME280;59097;46.858;18.632;2023-04-09T04:06:02;101069.06;;;3.67;100.00
71306;BME280;59097;46.858;18.632;2023-04-09T04:08:33;101069.06;;;3.67;100.00
71306;BME280;59097;46.858;18.632;2023-04-09T04:11:04;101066.91;;;2.99;100.00
71306;BME280;59097;46.858;18.632;2023-04-09T04:13:32;101075.22;;;3.04;100.00
71306;BME280;59097;46.858;18.632;2023-04-09T04:16:07;101071.63;;;3.05;100.00
71306;BME280;59097;46.858;18.632;2023-04-09T04:18:36;101071.37;;;3.08;100.00
71306;BME280;59097;46.858;18.632;2023-04-09T04:21:05;101081.31;;;3.25;100.00
71306;BME280;59097;46.858;18.632;2023-04-09T04:23:40;101086.75;;;3.33;100.00
71306;BME280;59097;46.858;18.632;2023-04-09T04:26:11;101083.91;;;3.36;100.00
71306;BME280;59097;46.858;18.632;2023-04-09T04:28:54;101087.03;;;3.51;100.00
71306;BME280;59097;46.858;18.632;2023-04-09T04:31:20;101098.56;;;3.59;100.00
71306;BME280;59097;46.858;18.632;2023-04-09T04:33:46;101085.44;;;3.59;100.00
71306;BME280;59097;46.858;18.632;2023-04-09T04:36:13;101088.25;;;3.67;100.00
71306;BME280;59097;46.858;18.632;2023-04-09T04:38:40;101078.13;;;3.63;100.00
71306;BME280;59097;46.858;18.632;2023-04-09T04:41:12;101090.00;;;4.38;100.00
71306;BME280;59097;46.858;18.632;2023-04-09T04:43:42;101090.00;;;4.38;100.00
71306;BME280;59097;46.858;18.632;2023-04-09T04:46:15;101049.12;;;3.55;100.00
71306;BME280;59097;46.858;18.632;2023-04-09T04:48:43;101101.47;;;3.87;100.00
71306;BME280;59097;46.858;18.632;2023-04-09T04:51:11;101093.81;;;3.95;100.00
71306;BME280;59097;46.858;18.632;2023-04-09T04:53:40;101097.13;;;3.97;100.00
71306;BME280;59097;46.858;18.632;2023-04-09T04:56:15;101099.50;;;4.00;100.00
71306;BME280;59097;46.858;18.632;2023-04-09T04:58:44;101079.97;;;3.93;100.00
71306;BME280;59097;46.858;18.632;2023-04-09T05:01:27;101080.94;;;3.92;100.00
71306;BME280;59097;46.858;18.632;2023-04-09T05:04:09;101098.25;;;4.04;100.00
71306;BME280;59097;46.858;18.632;2023-04-09T05:06:35;101043.41;;;3.70;100.00
71306;BME280;59097;46.858;18.632;2023-04-09T05:09:02;101095.25;;;4.08;100.00
71306;BME280;59097;46.858;18.632;2023-04-09T05:11:28;101082.91;;;3.99;100.00
71306;BME280;59097;46.858;18.632;2023-04-09T05:13:54;101098.75;;;4.18;100.00
71306;BME280;59097;46.858;18.632;2023-04-09T05:16:27;101102.56;;;4.94;100.00
71306;BME280;59097;46.858;18.632;2023-04-09T05:18:57;101102.56;;;4.94;100.00
71306;BME280;59097;46.858;18.632;2023-04-09T05:21:25;101105.19;;;4.35;100.00
71306;BME280;59097;46.858;18.632;2023-04-09T05:23:54;101101.34;;;4.39;100.00
71306;BME280;59097;46.858;18.632;2023-04-09T05:26:23;101086.09;;;4.33;100.00
71306;BME280;59097;46.858;18.632;2023-04-09T05:28:51;101108.81;;;4.43;100.00
71306;BME280;59097;46.858;18.632;2023-04-09T05:31:20;101073.63;;;4.25;100.00
71306;BME280;59097;46.858;18.632;2023-04-09T05:33:50;101116.47;;;4.56;100.00
71306;BME280;59097;46.858;18.632;2023-04-09T05:36:20;101066.22;;;4.40;100.00
71306;BME280;59097;46.858;18.632;2023-04-09T05:38:48;101074.66;;;4.34;100.00
71306;BME280;59097;46.858;18.632;2023-04-09T05:41:29;101094.09;;;4.71;100.00
71306;BME280;59097;46.858;18.632;2023-04-09T05:43:57;101125.84;;;5.08;100.00
71306;BME280;59097;46.858;18.632;2023-04-09T05:46:23;101128.06;;;5.32;100.00
71306;BME280;59097;46.858;18.632;2023-04-09T05:48:50;101122.28;;;5.57;100.00
71306;BME280;59097;46.858;18.632;2023-04-09T05:51:16;101129.31;;;5.47;100.00
71306;BME280;59097;46.858;18.632;2023-04-09T05:53:48;101115.03;;;6.71;100.00
71306;BME280;59097;46.858;18.632;2023-04-09T05:56:17;101115.03;;;6.71;100.00
71306;BME280;59097;46.858;18.632;2023-04-09T05:58:47;101127.75;;;6.11;100.00
71306;BME280;59097;46.858;18.632;2023-04-09T06:01:15;101128.81;;;6.18;100.00
71306;BME280;59097;46.858;18.632;2023-04-09T06:03:43;101123.06;;;6.42;100.00
71306;BME280;59097;46.858;18.632;2023-04-09T06:06:12;101121.09;;;6.44;100.00
71306;BME280;59097;46.858;18.632;2023-04-09T06:08:40;101114.25;;;6.61;100.00
71306;BME280;59097;46.858;18.632;2023-04-09T06:11:10;101110.25;;;6.84;100.00
71306;BME280;59097;46.858;18.632;2023-04-09T06:13:39;101128.53;;;7.13;100.00
71306;BME280;59097;46.858;18.632;2023-04-09T06:16:32;101088.47;;;6.82;98.12
71306;BME280;59097;46.858;18.632;2023-04-09T06:18:58;101127.25;;;7.34;96.33
71306;BME280;59097;46.858;18.632;2023-04-09T06:21:24;101119.69;;;7.39;97.01
71306;BME280;59097;46.858;18.632;2023-04-09T06:23:51;101131.97;;;7.31;95.80
71306;BME280;59097;46.858;18.632;2023-04-09T06:26:18;101127.84;;;8.07;95.38
71306;BME280;59097;46.858;18.632;2023-04-09T06:28:44;101115.53;;;8.23;93.29
71306;BME280;59097;46.858;18.632;2023-04-09T06:31:16;101123.97;;;8.87;89.74
71306;BME280;59097;46.858;18.632;2023-04-09T06:33:45;101123.97;;;8.87;89.74
71306;BME280;59097;46.858;18.632;2023-04-09T06:36:13;101125.91;;;8.17;91.31
71306;BME280;59097;46.858;18.632;2023-04-09T06:38:41;101114.25;;;7.76;91.58
71306;BME280;59097;46.858;18.632;2023-04-09T06:41:09;101103.34;;;7.18;91.16
71306;BME280;59097;46.858;18.632;2023-04-09T06:43:39;101143.81;;;7.62;91.64
71306;BME280;59097;46.858;18.632;2023-04-09T06:46:07;101132.75;;;7.41;91.00
71306;BME280;59097;46.858;18.632;2023-04-09T06:48:36;101124.22;;;7.29;91.89
71306;BME280;59097;46.858;18.632;2023-04-09T06:51:05;101140.69;;;7.58;92.23
71306;BME280;59097;46.858;18.632;2023-04-09T06:53:34;101142.84;;;7.63;91.75
71306;BME280;59097;46.858;18.632;2023-04-09T06:56:16;101137.09;;;7.68;91.67
71306;BME280;59097;46.858;18.632;2023-04-09T06:58:42;101151.03;;;7.78;91.27
71306;BME280;59097;46.858;18.632;2023-04-09T07:01:08;101145.41;;;7.55;90.53
71306;BME280;59097;46.858;18.632;2023-04-09T07:03:34;101135.41;;;8.02;90.35
71306;BME280;59097;46.858;18.632;2023-04-09T07:06:01;101139.47;;;7.96;89.87
71306;BME280;59097;46.858;18.632;2023-04-09T07:08:33;101146.81;;;8.62;86.98
71306;BME280;59097;46.858;18.632;2023-04-09T07:11:02;101146.81;;;8.62;86.98
71306;BME280;59097;46.858;18.632;2023-04-09T07:13:30;101156.16;;;7.97;89.85
71306;BME280;59097;46.858;18.632;2023-04-09T07:16:00;101147.97;;;8.08;89.87
71306;BME280;59097;46.858;18.632;2023-04-09T07:18:29;101139.91;;;8.09;88.45
71306;BME280;59097;46.858;18.632;2023-04-09T07:20:57;101156.94;;;8.15;88.39
71306;BME280;59097;46.858;18.632;2023-04-09T07:23:25;101149.28;;;8.04;88.20
71306;BME280;59097;46.858;18.632;2023-04-09T07:25:54;101148.50;;;8.11;89.07
71306;BME280;59097;46.858;18.632;2023-04-09T07:28:22;101151.25;;;8.02;87.54
71306;BME280;59097;46.858;18.632;2023-04-09T07:30:51;101156.75;;;7.91;88.02
71306;BME280;59097;46.858;18.632;2023-04-09T07:33:49;101157.66;;;7.99;87.62
71306;BME280;59097;46.858;18.632;2023-04-09T07:36:15;101158.47;;;8.00;86.94
71306;BME280;59097;46.858;18.632;2023-04-09T07:38:41;101148.63;;;7.84;86.12
71306;BME280;59097;46.858;18.632;2023-04-09T07:41:10;101152.53;;;7.98;87.22
71306;BME280;59097;46.858;18.632;2023-04-09T07:43:36;101159.47;;;7.99;87.63
71306;BME280;59097;46.858;18.632;2023-04-09T07:46:19;101131.28;;;7.82;86.82
71306;BME280;59097;46.858;18.632;2023-04-09T07:48:52;101158.78;;;8.40;83.59
71306;BME280;59097;46.858;18.632;2023-04-09T07:51:23;101158.78;;;8.40;83.59
71306;BME280;59097;46.858;18.632;2023-04-09T07:53:51;101165.94;;;7.61;87.20
71306;BME280;59097;46.858;18.632;2023-04-09T07:56:19;101147.28;;;7.62;87.03
71306;BME280;59097;46.858;18.632;2023-04-09T07:58:47;101159.09;;;7.94;85.16
71306;BME280;59097;46.858;18.632;2023-04-09T08:01:16;101174.06;;;7.68;85.98
71306;BME280;59097;46.858;18.632;2023-04-09T08:03:44;101182.19;;;7.56;86.62
71306;BME280;59097;46.858;18.632;2023-04-09T08:06:12;101183.72;;;7.41;89.94
71306;BME280;59097;46.858;18.632;2023-04-09T08:08:41;101151.59;;;7.64;85.98
71306;BME280;59097;46.858;18.632;2023-04-09T08:11:47;101175.09;;;7.75;87.06
71306;BME280;59097;46.858;18.632;2023-04-09T08:14:15;101187.50;;;7.74;85.31
71306;BME280;59097;46.858;18.632;2023-04-09T08:16:43;101175.28;;;7.55;85.13
71306;BME280;59097;46.858;18.632;2023-04-09T08:19:10;101196.41;;;7.73;84.99
71306;BME280;59097;46.858;18.632;2023-04-09T08:21:37;101181.75;;;7.79;85.36
71306;BME280;59097;46.858;18.632;2023-04-09T08:24:04;101191.78;;;7.57;83.86
71306;BME280;59097;46.858;18.632;2023-04-09T08:26:31;101188.56;;;7.64;82.58
71306;BME280;59097;46.858;18.632;2023-04-09T08:29:04;101201.19;;;8.98;80.33
71306;BME280;59097;46.858;18.632;2023-04-09T08:31:33;101201.19;;;8.98;80.33
71306;BME280;59097;46.858;18.632;2023-04-09T08:34:01;101202.22;;;8.38;81.39
71306;BME280;59097;46.858;18.632;2023-04-09T08:36:29;101186.91;;;8.49;81.33
71306;BME280;59097;46.858;18.632;2023-04-09T08:38:58;101172.53;;;8.26;79.89
71306;BME280;59097;46.858;18.632;2023-04-09T08:41:27;101198.09;;;8.43;81.20
71306;BME280;59097;46.858;18.632;2023-04-09T08:43:57;101182.81;;;8.55;80.44
71306;BME280;59097;46.858;18.632;2023-04-09T08:46:27;101187.38;;;8.01;79.90
71306;BME280;59097;46.858;18.632;2023-04-09T08:49:10;101204.56;;;8.74;77.92
71306;BME280;59097;46.858;18.632;2023-04-09T08:51:54;101201.12;;;8.82;76.64
71306;BME280;59097;46.858;18.632;2023-04-09T08:54:36;101211.25;;;8.95;78.18
71306;BME280;59097;46.858;18.632;2023-04-09T08:57:05;101216.09;;;9.07;78.24
71306;BME280;59097;46.858;18.632;2023-04-09T08:59:31;101192.75;;;8.87;77.14
71306;BME280;59097;46.858;18.632;2023-04-09T09:02:09;101210.34;;;8.44;78.26
71306;BME280;59097;46.858;18.632;2023-04-09T09:04:49;101190.38;;;8.75;78.00
71306;BME280;59097;46.858;18.632;2023-04-09T09:07:21;101217.28;;;9.13;73.74
71306;BME280;59097;46.858;18.632;2023-04-09T09:12:38;101219.06;;;8.96;76.37
71306;BME280;59097;46.858;18.632;2023-04-09T09:15:28;101220.56;;;8.99;75.51
71306;BME280;59097;46.858;18.632;2023-04-09T09:17:58;101220.09;;;8.26;76.33
71306;BME280;59097;46.858;18.632;2023-04-09T09:20:26;101223.13;;;8.31;77.32
71306;BME280;59097;46.858;18.632;2023-04-09T09:22:55;101222.66;;;8.53;77.11
71306;BME280;59097;46.858;18.632;2023-04-09T09:25:24;101226.97;;;8.62;77.53
71306;BME280;59097;46.858;18.632;2023-04-09T09:27:54;101219.94;;;8.79;78.96
71306;BME280;59097;46.858;18.632;2023-04-09T09:30:45;101220.66;;;8.81;79.44
71306;BME280;59097;46.858;18.632;2023-04-09T09:33:32;101211.38;;;8.85;78.26
71306;BME280;59097;46.858;18.632;2023-04-09T09:35:58;101216.03;;;8.83;78.16
71306;BME280;59097;46.858;18.632;2023-04-09T09:38:24;101204.41;;;8.24;79.05
71306;BME280;59097;46.858;18.632;2023-04-09T09:40:51;101214.94;;;9.02;77.33
71306;BME280;59097;46.858;18.632;2023-04-09T09:43:17;101209.87;;;8.82;76.93
71306;BME280;59097;46.858;18.632;2023-04-09T09:45:49;101211.81;;;9.72;74.94
71306;BME280;59097;46.858;18.632;2023-04-09T09:48:18;101211.81;;;9.72;74.94
71306;BME280;59097;46.858;18.632;2023-04-09T09:50:47;101209.44;;;8.61;73.02
71306;BME280;59097;46.858;18.632;2023-04-09T09:53:18;101190.13;;;8.61;76.12
71306;BME280;59097;46.858;18.632;2023-04-09T09:55:51;101209.31;;;8.63;76.85
71306;BME280;59097;46.858;18.632;2023-04-09T09:58:27;101185.22;;;8.74;76.20
71306;BME280;59097;46.858;18.632;2023-04-09T10:00:59;101214.91;;;8.94;76.61
71306;BME280;59097;46.858;18.632;2023-04-09T10:03:31;101209.87;;;8.82;76.92
71306;BME280;59097;46.858;18.632;2023-04-09T10:06:02;101209.66;;;9.02;75.79
71306;BME280;59097;46.858;18.632;2023-04-09T10:08:47;101207.88;;;9.18;75.61
71306;BME280;59097;46.858;18.632;2023-04-09T10:11:34;101206.28;;;8.83;77.44
71306;BME280;59097;46.858;18.632;2023-04-09T10:14:02;101207.41;;;9.23;75.87
71306;BME280;59097;46.858;18.632;2023-04-09T10:16:28;101204.72;;;9.07;75.51
71306;BME280;59097;46.858;18.632;2023-04-09T10:18:59;101177.22;;;8.58;76.24
71306;BME280;59097;46.858;18.632;2023-04-09T10:24:02;101203.06;;;8.72;77.75
71306;BME280;59097;46.858;18.632;2023-04-09T10:26:34;101203.06;;;8.72;77.75
71306;BME280;59097;46.858;18.632;2023-04-09T10:29:11;101208.00;;;8.67;77.13
71306;BME280;59097;46.858;18.632;2023-04-09T10:31:53;101217.94;;;8.73;76.37
71306;BME280;59097;46.858;18.632;2023-04-09T10:34:23;101190.50;;;8.74;77.05
71306;BME280;59097;46.858;18.632;2023-04-09T10:36:58;101210.31;;;8.70;78.06
71306;BME280;59097;46.858;18.632;2023-04-09T10:39:30;101187.53;;;8.43;77.75
71306;BME280;59097;46.858;18.632;2023-04-09T10:42:00;101208.28;;;8.56;76.98
71306;BME280;59097;46.858;18.632;2023-04-09T10:44:34;101194.38;;;8.54;77.94
71306;BME280;59097;46.858;18.632;2023-04-09T10:47:02;101205.78;;;8.54;79.26
71306;BME280;59097;46.858;18.632;2023-04-09T10:49:35;101208.97;;;8.92;77.28
71306;BME280;59097;46.858;18.632;2023-04-09T10:52:11;101165.37;;;8.70;75.42
71306;BME280;59097;46.858;18.632;2023-04-09T10:54:40;101197.75;;;9.06;75.46
71306;BME280;59097;46.858;18.632;2023-04-09T10:57:18;101212.34;;;9.18;74.68
71306;BME280;59097;46.858;18.632;2023-04-09T10:59:52;101216.78;;;9.91;74.25
71306;BME280;59097;46.858;18.632;2023-04-09T11:02:44;101216.78;;;9.91;74.25
71306;BME280;59097;46.858;18.632;2023-04-09T11:05:25;101200.19;;;8.91;75.09
71306;BME280;59097;46.858;18.632;2023-04-09T11:08:09;101208.66;;;9.61;74.15
71306;BME280;59097;46.858;18.632;2023-04-09T11:10:39;101202.06;;;9.73;71.97
71306;BME280;59097;46.858;18.632;2023-04-09T11:13:12;101214.13;;;9.67;73.34
71306;BME280;59097;46.858;18.632;2023-04-09T11:15:41;101202.69;;;9.67;69.61
71306;BME280;59097;46.858;18.632;2023-04-09T11:18:22;101213.13;;;9.76;71.10
71306;BME280;59097;46.858;18.632;2023-04-09T11:20:54;101199.56;;;9.55;71.33
71306;BME280;59097;46.858;18.632;2023-04-09T11:23:21;101197.81;;;8.80;72.64
71306;BME280;59097;46.858;18.632;2023-04-09T11:25:49;101208.66;;;9.53;72.00
71306;BME280;59097;46.858;18.632;2023-04-09T11:28:16;101206.47;;;9.48;73.05
71306;BME280;59097;46.858;18.632;2023-04-09T11:30:43;101174.34;;;9.43;73.92
71306;BME280;59097;46.858;18.632;2023-04-09T11:33:12;101200.72;;;9.69;74.15
71306;BME280;59097;46.858;18.632;2023-04-09T11:35:38;101201.22;;;9.72;72.99
71306;BME280;59097;46.858;18.632;2023-04-09T11:38:11;101201.19;;;10.53;70.05
71306;BME280;59097;46.858;18.632;2023-04-09T11:40:41;101201.19;;;10.53;70.05
71306;BME280;59097;46.858;18.632;2023-04-09T11:43:15;101187.47;;;10.41;70.79
71306;BME280;59097;46.858;18.632;2023-04-09T11:45:44;101195.59;;;10.40;69.22
71306;BME280;59097;46.858;18.632;2023-04-09T11:48:16;101198.03;;;10.57;69.76
71306;BME280;59097;46.858;18.632;2023-04-09T11:50:45;101199.75;;;10.34;68.86
71306;BME280;59097;46.858;18.632;2023-04-09T11:53:15;101197.22;;;10.57;68.87
71306;BME280;59097;46.858;18.632;2023-04-09T11:55:46;101200.16;;;10.70;68.49
71306;BME280;59097;46.858;18.632;2023-04-09T11:58:26;101197.22;;;10.57;67.27
71306;BME280;59097;46.858;18.632;2023-04-09T12:01:08;101174.28;;;10.72;68.54
71306;BME280;59097;46.858;18.632;2023-04-09T12:03:34;101189.59;;;10.54;66.69
71306;BME280;59097;46.858;18.632;2023-04-09T12:06:03;101179.56;;;10.80;67.89
71306;BME280;59097;46.858;18.632;2023-04-09T12:08:33;101183.78;;;10.58;67.54
71306;BME280;59097;46.858;18.632;2023-04-09T12:11:10;101188.66;;;10.23;71.09
71306;BME280;59097;46.858;18.632;2023-04-09T12:13:38;101178.38;;;10.91;67.30
71306;BME280;59097;46.858;18.632;2023-04-09T12:16:18;101194.75;;;11.56;65.70
71306;BME280;59097;46.858;18.632;2023-04-09T12:18:48;101194.75;;;11.56;65.70
71306;BME280;59097;46.858;18.632;2023-04-09T12:21:17;101175.28;;;10.63;66.27
71306;BME280;59097;46.858;18.632;2023-04-09T12:23:47;101194.75;;;10.94;67.62
71306;BME280;59097;46.858;18.632;2023-04-09T12:26:15;101184.69;;;10.27;68.88
71306;BME280;59097;46.858;18.632;2023-04-09T12:28:43;101190.63;;;10.04;69.50
71306;BME280;59097;46.858;18.632;2023-04-09T12:31:11;101196.75;;;10.92;68.26
71306;BME280;59097;46.858;18.632;2023-04-09T12:33:40;101185.16;;;10.93;67.65
71306;BME280;59097;46.858;18.632;2023-04-09T12:36:23;101187.75;;;10.62;66.26
71306;BME280;59097;46.858;18.632;2023-04-09T12:39:20;101188.63;;;11.24;66.57
71306;BME280;59097;46.858;18.632;2023-04-09T12:42:02;101190.41;;;11.32;66.08
71306;BME280;59097;46.858;18.632;2023-04-09T12:44:28;101189.87;;;11.14;64.08
71306;BME280;59097;46.858;18.632;2023-04-09T12:46:54;101182.28;;;11.03;66.37
71306;BME280;59097;46.858;18.632;2023-04-09T12:49:21;101187.00;;;10.85;65.85
71306;BME280;59097;46.858;18.632;2023-04-09T12:51:47;101171.00;;;11.09;66.10
71306;BME280;59097;46.858;18.632;2023-04-09T12:54:19;101183.47;;;11.00;69.22
71306;BME280;59097;46.858;18.632;2023-04-09T12:56:48;101183.47;;;11.00;69.22
71306;BME280;59097;46.858;18.632;2023-04-09T12:59:16;101185.97;;;10.39;68.59
71306;BME280;59097;46.858;18.632;2023-04-09T13:01:44;101183.34;;;10.39;68.17
71306;BME280;59097;46.858;18.632;2023-04-09T13:04:13;101177.62;;;10.58;68.82
71306;BME280;59097;46.858;18.632;2023-04-09T13:06:41;101180.25;;;10.74;68.43
71306;BME280;59097;46.858;18.632;2023-04-09T13:09:09;101174.25;;;10.80;68.07
71306;BME280;59097;46.858;18.632;2023-04-09T13:11:38;101171.94;;;10.77;67.83
71306;BME280;59097;46.858;18.632;2023-04-09T13:14:20;101174.56;;;10.85;67.83
71306;BME280;59097;46.858;18.632;2023-04-09T13:17:17;101173.31;;;11.04;68.24
71306;BME280;59097;46.858;18.632;2023-04-09T13:20:14;101167.22;;;10.95;67.42